Time;durP1;ratioP1;P1;durP2;ratioP2;P2;SDS_P1;SDS_P2;PMS_P1;PMS_P2;Temp;Humidity;BMP_temperature;BMP_pressure;BME280_temperature;BME280_humidity;BME280_pressure;Samples;Min_cycle;Max_cycle;Signal;HPM_P1;HPM_P2
2022/03/06 00:01:41;;;;;;;22.80;19.67;;;;;;;7.06;65.52;99545.59;5051979;28;20028;-89
2022/03/06 00:04:06;;;;;;;23.75;20.33;;;;;;;7.10;65.29;99545.13;5067197;28;20033;-90
2022/03/06 00:06:32;;;;;;;24.48;18.83;;;;;;;7.38;65.49;99594.84;5067280;28;20024;-90
2022/03/06 00:08:57;;;;;;;23.60;19.90;;;;;;;6.63;65.25;99500.03;5051250;28;20394;-90
2022/03/06 00:11:23;;;;;;;24.02;19.52;;;;;;;5.13;65.53;99254.63;5067145;28;20486;-89
2022/03/06 00:13:48;;;;;;;24.55;21.95;;;;;;;7.25;65.65;99616.28;5066994;28;20056;-89
2022/03/06 00:16:14;;;;;;;24.52;20.33;;;;;;;6.34;65.79;99469.69;5052439;28;20021;-89
2022/03/06 00:18:39;;;;;;;22.90;20.27;;;;;;;6.91;66.15;99550.59;5067176;28;20029;-89
2022/03/06 00:21:05;;;;;;;23.35;19.90;;;;;;;6.53;66.17;99486.19;5067232;28;20548;-90
2022/03/06 00:23:31;;;;;;;22.83;19.17;;;;;;;6.71;65.88;99509.78;5067361;28;20089;-90
2022/03/06 00:25:57;;;;;;;24.65;20.25;;;;;;;6.84;65.78;99536.44;5052647;28;20163;-91
2022/03/06 00:28:22;;;;;;;24.48;20.88;;;;;;;6.97;66.41;99561.31;5055619;28;20012;-84
2022/03/06 00:30:48;;;;;;;27.65;22.88;;;;;;;6.73;66.51;99524.41;5094218;28;20024;-90
2022/03/06 00:33:13;;;;;;;24.83;20.15;;;;;;;6.28;66.40;99469.47;5078006;28;20028;-90
2022/03/06 00:35:39;;;;;;;24.52;20.55;;;;;;;6.60;66.65;99506.41;5073416;28;20033;-91
2022/03/06 00:38:04;;;;;;;24.17;20.48;;;;;;;7.19;66.60;99593.25;5077389;28;20033;-90
2022/03/06 00:40:30;;;;;;;23.85;20.77;;;;;;;6.33;66.62;99444.44;5069443;28;20035;-91
2022/03/06 00:42:55;;;;;;;28.55;22.42;;;;;;;7.06;66.58;99621.72;5066729;28;20028;-90
2022/03/06 00:45:21;;;;;;;24.38;21.42;;;;;;;6.97;67.10;99552.59;5051970;28;20032;-91
2022/03/06 00:47:46;;;;;;;28.65;22.33;;;;;;;7.10;67.04;99591.56;5067205;28;20074;-91
2022/03/06 00:50:12;;;;;;;24.63;21.02;;;;;;;7.15;67.14;99578.81;5067004;28;20033;-90
2022/03/06 00:52:39;;;;;;;25.35;20.52;;;;;;;6.46;67.00;99466.81;5067084;28;20059;-91
2022/03/06 00:55:05;;;;;;;25.98;22.08;;;;;;;7.20;67.22;99581.78;5050461;28;20017;-91
2022/03/06 00:57:31;;;;;;;24.65;20.63;;;;;;;6.91;66.96;99540.94;5067299;28;20025;-91
2022/03/06 00:59:56;;;;;;;25.77;20.85;;;;;;;6.81;67.26;99526.25;5067707;28;20502;-91
2022/03/06 01:02:22;;;;;;;24.38;21.30;;;;;;;5.59;66.80;99355.69;5051806;28;20021;-91
2022/03/06 01:04:49;;;;;;;26.17;21.92;;;;;;;6.33;67.05;99451.47;5050755;28;20013;-91
2022/03/06 01:07:15;;;;;;;25.75;20.70;;;;;;;7.02;67.46;99555.59;5051918;28;20084;-91
2022/03/06 01:09:40;;;;;;;27.70;22.10;;;;;;;6.53;67.12;99505.38;5068802;28;20033;-90
2022/03/06 01:12:06;;;;;;;24.73;21.05;;;;;;;6.62;67.42;99495.78;5093526;28;20044;-90
2022/03/06 01:14:32;;;;;;;26.20;21.08;;;;;;;6.68;67.33;99508.28;5093584;28;20080;-91
2022/03/06 01:16:57;;;;;;;24.00;20.02;;;;;;;6.89;67.65;99542.88;5072048;28;20029;-91
2022/03/06 01:19:22;;;;;;;25.45;20.27;;;;;;;6.06;67.58;99402.63;5053453;28;20051;-91
2022/03/06 01:21:49;;;;;;;23.55;21.05;;;;;;;6.32;67.66;99442.78;5056369;28;20021;-92
2022/03/06 01:24:14;;;;;;;23.60;20.25;;;;;;;6.80;67.67;99543.81;5051603;28;20027;-90
2022/03/06 01:26:40;;;;;;;24.73;20.52;;;;;;;6.20;67.83;99423.03;5066183;28;20033;-91
2022/03/06 01:29:05;;;;;;;26.52;22.30;;;;;;;6.52;67.57;99480.13;5049793;28;20025;-90
2022/03/06 01:31:31;;;;;;;25.70;20.35;;;;;;;6.30;67.49;99449.97;5066859;28;20114;-90
2022/03/06 01:33:57;;;;;;;23.67;20.95;;;;;;;6.52;67.58;99485.38;5066351;28;20508;-90
2022/03/06 01:36:22;;;;;;;26.90;22.27;;;;;;;6.95;68.22;99550.13;5051122;28;20319;-90
2022/03/06 01:38:48;;;;;;;26.23;21.10;;;;;;;6.53;67.90;99496.69;5066689;28;20048;-90
2022/03/06 01:41:13;;;;;;;23.80;20.55;;;;;;;6.71;67.83;99515.88;5066323;28;20025;-90
2022/03/06 01:43:39;;;;;;;28.30;22.88;;;;;;;6.67;67.72;99499.56;5067846;28;20045;-90
2022/03/06 01:46:04;;;;;;;23.83;20.85;;;;;;;6.57;67.81;99485.75;5070340;28;20032;-89
2022/03/06 01:48:30;;;;;;;25.38;22.02;;;;;;;7.07;68.00;99542.00;5054764;28;20436;-90
2022/03/06 01:50:55;;;;;;;25.65;22.02;;;;;;;6.49;67.95;99463.88;5055331;28;20036;-90
2022/03/06 01:53:21;;;;;;;25.30;19.13;;;;;;;6.41;68.04;99471.69;5053478;28;20029;-90
2022/03/06 01:55:47;;;;;;;24.38;20.58;;;;;;;5.30;67.59;99289.66;5054778;28;20036;-90
2022/03/06 01:58:13;;;;;;;25.50;21.67;;;;;;;6.88;67.88;99550.91;5069942;28;20113;-90
2022/03/06 02:00:45;;;;;;;22.63;20.17;;;;;;;6.94;67.55;99566.03;5054727;28;20070;-89
2022/03/06 02:03:10;;;;;;;;;;;;;;;6.84;68.03;99552.19;5070266;28;20060;-89
2022/03/06 02:05:38;;;;;;;20.88;17.80;;;;;;;5.46;67.46;99367.50;5054445;28;19967;-90
2022/03/06 02:08:05;;;;;;;26.25;18.70;;;;;;;6.60;67.16;99518.72;5053818;28;20028;-90
2022/03/06 02:10:31;;;;;;;19.92;17.45;;;;;;;6.03;67.30;99432.59;5053257;28;20036;-90
2022/03/06 02:12:58;;;;;;;21.65;18.35;;;;;;;6.83;67.65;99561.03;5053163;28;20032;-89
2022/03/06 02:15:23;;;;;;;21.05;18.85;;;;;;;6.83;66.90;99558.41;5054879;28;20025;-90
2022/03/06 02:17:49;;;;;;;19.70;17.08;;;;;;;6.82;67.33;99562.03;5052972;28;20094;-90
2022/03/06 02:20:26;;;;;;;21.27;18.38;;;;;;;6.77;67.40;99559.03;5069859;28;20044;-90
2022/03/06 02:23:00;;;;;;;20.88;18.42;;;;;;;5.73;67.16;99398.84;5053874;28;20100;-90
2022/03/06 02:25:32;;;;;;;21.27;17.45;;;;;;;6.53;67.68;99521.13;5070525;28;20037;-92
2022/03/06 02:28:00;;;;;;;21.63;19.33;;;;;;;5.82;67.21;99445.13;5054172;28;20037;-91
2022/03/06 02:30:29;;;;;;;20.17;17.90;;;;;;;6.64;67.72;99556.78;5071832;28;20024;-92
2022/03/06 02:32:57;;;;;;;21.88;18.00;;;;;;;6.50;67.38;99524.06;5053215;28;20021;-92
2022/03/06 02:35:22;;;;;;;22.42;19.35;;;;;;;5.96;67.79;99456.94;5070011;28;20028;-92
2022/03/06 02:37:48;;;;;;;21.23;18.73;;;;;;;6.55;67.66;99534.09;5071333;28;20033;-91
2022/03/06 02:40:15;;;;;;;20.92;18.50;;;;;;;6.75;67.79;99561.81;5053168;28;20025;-91
2022/03/06 02:42:43;;;;;;;20.45;17.63;;;;;;;6.77;67.29;99566.91;5052640;28;20086;-91
2022/03/06 02:45:22;;;;;;;19.95;17.63;;;;;;;6.77;67.42;99572.16;5053277;28;20052;-91
2022/03/06 02:47:49;;;;;;;20.15;17.95;;;;;;;6.13;67.50;99507.69;5053035;28;20119;-91
2022/03/06 02:50:22;;;;;;;23.55;18.65;;;;;;;6.31;67.72;99534.72;5052840;28;20024;-92
2022/03/06 02:52:51;;;;;;;21.75;17.75;;;;;;;6.61;67.87;99581.50;5053301;28;20059;-91
2022/03/06 02:55:17;;;;;;;20.77;18.13;;;;;;;6.65;67.69;99580.25;5052342;28;20031;-91
2022/03/06 02:57:43;;;;;;;20.58;18.17;;;;;;;6.43;67.50;99548.41;5054437;28;20029;-91
2022/03/06 03:00:12;;;;;;;22.60;17.33;;;;;;;6.44;67.75;99560.56;5069292;28;20437;-92
2022/03/06 03:02:39;;;;;;;19.75;16.65;;;;;;;6.41;68.11;99532.00;5052810;28;20063;-91
2022/03/06 03:05:06;;;;;;;23.05;17.48;;;;;;;6.64;67.88;99568.09;5052535;28;20025;-92
2022/03/06 03:07:31;;;;;;;20.75;17.40;;;;;;;6.64;68.34;99565.47;5053791;28;20118;-92
2022/03/06 03:09:57;;;;;;;23.17;18.88;;;;;;;6.21;67.82;99516.44;5052563;28;20104;-91
2022/03/06 03:12:23;;;;;;;21.05;18.75;;;;;;;5.40;67.81;99379.41;5068952;28;20029;-91
2022/03/06 03:14:48;;;;;;;22.33;18.33;;;;;;;6.67;67.95;99588.78;5053324;28;20632;-92
2022/03/06 03:17:14;;;;;;;20.10;17.50;;;;;;;5.82;67.88;99431.19;5068973;28;20109;-91
2022/03/06 03:19:39;;;;;;;19.67;17.50;;;;;;;6.24;67.61;99525.81;5068863;28;20025;-92
2022/03/06 03:22:05;;;;;;;20.35;16.15;;;;;;;5.84;67.85;99482.47;5069155;28;20040;-93
2022/03/06 03:24:30;;;;;;;17.70;15.27;;;;;;;5.21;67.45;99380.38;5052089;28;20032;-90
2022/03/06 03:26:56;;;;;;;17.00;15.07;;;;;;;6.15;67.42;99538.00;5053390;28;20029;-91
2022/03/06 03:29:21;;;;;;;19.52;15.52;;;;;;;5.82;67.50;99483.59;5054310;28;20021;-91
2022/03/06 03:31:47;;;;;;;19.60;16.02;;;;;;;6.20;67.74;99555.91;5053385;28;20032;-91
2022/03/06 03:34:12;;;;;;;20.58;15.45;;;;;;;5.63;67.29;99472.28;5053031;28;20112;-91
2022/03/06 03:36:39;;;;;;;16.48;14.65;;;;;;;6.07;67.80;99569.41;5052114;28;20414;-90
2022/03/06 03:39:06;;;;;;;17.77;14.48;;;;;;;5.67;67.14;99493.75;5052109;28;20104;-91
2022/03/06 03:41:31;;;;;;;19.33;15.82;;;;;;;5.21;67.05;99409.16;5053204;28;20021;-91
2022/03/06 03:43:57;;;;;;;18.13;16.05;;;;;;;4.89;67.29;99365.09;5051543;28;20579;-90
2022/03/06 03:46:22;;;;;;;20.95;16.25;;;;;;;5.09;67.03;99402.44;5051885;28;20467;-89
2022/03/06 03:48:48;;;;;;;18.85;15.75;;;;;;;6.03;67.62;99576.72;5068954;28;20060;-91
2022/03/06 03:51:13;;;;;;;19.52;16.90;;;;;;;6.19;67.34;99591.78;5068214;28;20490;-91
2022/03/06 03:53:39;;;;;;;18.23;16.10;;;;;;;6.02;67.20;99567.22;5068256;28;20087;-91
2022/03/06 03:56:05;;;;;;;19.13;16.80;;;;;;;5.05;67.14;99408.94;5052656;28;20020;-91
2022/03/06 03:58:30;;;;;;;18.40;16.00;;;;;;;6.00;66.68;99569.16;5052530;28;20051;-91
2022/03/06 04:00:57;;;;;;;18.70;16.00;;;;;;;6.24;67.15;99601.84;5067799;28;20037;-90
2022/03/06 04:03:23;;;;;;;19.33;15.68;;;;;;;4.42;67.34;99312.88;5054793;28;20048;-91
2022/03/06 04:05:49;;;;;;;19.80;15.13;;;;;;;5.51;67.00;99520.59;5066536;28;20032;-90
2022/03/06 04:08:15;;;;;;;20.52;16.05;;;;;;;6.18;67.10;99597.19;5067422;28;20090;-90
2022/03/06 04:10:40;;;;;;;19.10;15.15;;;;;;;6.18;67.03;99611.13;5051954;28;20021;-91
2022/03/06 04:13:06;;;;;;;19.15;15.52;;;;;;;5.28;67.39;99504.44;5053143;28;20032;-90
2022/03/06 04:15:31;;;;;;;20.92;15.23;;;;;;;5.67;67.26;99543.53;5068084;28;20029;-90
2022/03/06 04:17:57;;;;;;;19.88;16.15;;;;;;;4.26;67.05;99327.53;5070372;28;20060;-90
2022/03/06 04:20:23;;;;;;;18.90;14.95;;;;;;;4.86;67.20;99402.03;5052428;28;20422;-90
2022/03/06 04:22:48;;;;;;;19.67;15.90;;;;;;;6.08;67.31;99612.16;5051395;28;20116;-90
2022/03/06 04:25:14;;;;;;;19.98;15.70;;;;;;;5.09;67.28;99473.94;5052691;28;20029;-91
2022/03/06 04:27:39;;;;;;;19.50;15.10;;;;;;;5.66;67.56;99552.34;5067740;28;20029;-90
2022/03/06 04:30:06;;;;;;;17.23;15.07;;;;;;;4.56;67.62;99410.97;5067798;28;20102;-90
2022/03/06 04:32:32;;;;;;;16.83;14.63;;;;;;;5.16;67.35;99479.41;5069622;28;20025;-90
2022/03/06 04:34:57;;;;;;;17.60;14.70;;;;;;;5.21;67.50;99458.88;5067496;28;20025;-90
2022/03/06 04:37:23;;;;;;;18.08;14.93;;;;;;;5.11;66.99;99456.28;5052289;28;20081;-91
2022/03/06 04:39:48;;;;;;;16.75;14.07;;;;;;;5.51;67.48;99548.56;5071494;28;20516;-91
2022/03/06 04:42:14;;;;;;;19.75;14.60;;;;;;;5.04;67.56;99460.47;5067392;28;20109;-91
2022/03/06 04:44:39;;;;;;;16.90;14.03;;;;;;;5.17;67.50;99448.81;5067545;28;20045;-90
2022/03/06 04:47:05;;;;;;;16.60;14.10;;;;;;;6.07;67.36;99628.84;5051774;28;20028;-90
2022/03/06 04:49:31;;;;;;;16.63;14.05;;;;;;;4.82;67.33;99394.59;5050401;28;20052;-90
2022/03/06 04:51:56;;;;;;;16.20;14.15;;;;;;;5.60;67.77;99514.47;5067324;28;20110;-90
2022/03/06 04:54:22;;;;;;;16.58;13.23;;;;;;;5.14;67.49;99460.41;5050438;28;20025;-90
2022/03/06 04:56:47;;;;;;;15.98;13.50;;;;;;;4.96;67.31;99467.38;5053815;28;20031;-90
2022/03/06 04:59:13;;;;;;;17.98;14.48;;;;;;;4.89;67.46;99434.91;5067388;28;20024;-90
2022/03/06 05:01:38;;;;;;;18.40;15.10;;;;;;;5.62;67.28;99541.34;5067125;28;20021;-90
2022/03/06 05:04:04;;;;;;;17.95;14.93;;;;;;;5.65;67.40;99521.88;5069668;28;20035;-90
2022/03/06 05:06:29;;;;;;;17.95;13.98;;;;;;;5.53;67.28;99523.88;5067050;28;20116;-91
2022/03/06 05:08:55;;;;;;;17.88;14.18;;;;;;;4.55;67.56;99374.50;5050757;28;20086;-90
2022/03/06 05:11:20;;;;;;;19.70;14.40;;;;;;;5.99;67.44;99592.91;5051622;28;20028;-91
2022/03/06 05:13:46;;;;;;;16.65;13.98;;;;;;;5.22;67.47;99499.78;5067274;28;20052;-90
2022/03/06 05:16:12;;;;;;;16.70;14.13;;;;;;;5.22;67.72;99464.94;5050520;28;20025;-90
2022/03/06 05:18:37;;;;;;;19.67;15.33;;;;;;;5.25;67.57;99496.06;5056184;28;20082;-90
2022/03/06 05:21:03;;;;;;;16.10;14.05;;;;;;;5.64;67.52;99534.16;5054508;28;20029;-90
2022/03/06 05:23:28;;;;;;;18.77;13.60;;;;;;;5.68;67.76;99555.66;5055670;28;20036;-90
2022/03/06 05:25:54;;;;;;;17.67;14.07;;;;;;;5.69;67.43;99570.38;5056993;28;20035;-90
2022/03/06 05:28:20;;;;;;;17.10;13.95;;;;;;;4.96;67.66;99446.44;5054276;28;20032;-90
2022/03/06 05:30:46;;;;;;;19.25;14.57;;;;;;;4.92;67.29;99411.91;5055550;28;20104;-90
2022/03/06 05:33:12;;;;;;;16.70;13.50;;;;;;;4.03;67.54;99322.66;5070787;28;20068;-91
2022/03/06 05:35:37;;;;;;;20.38;15.57;;;;;;;4.45;67.70;99393.63;5073241;28;20021;-90
2022/03/06 05:38:03;;;;;;;16.63;13.95;;;;;;;5.78;67.24;99560.81;5071050;28;20104;-90
2022/03/06 05:40:28;;;;;;;21.60;16.48;;;;;;;5.41;67.10;99546.81;5054453;28;20028;-90
2022/03/06 05:42:54;;;;;;;20.85;15.90;;;;;;;4.91;66.96;99474.84;5077863;28;20021;-90
2022/03/06 05:45:19;;;;;;;19.85;16.05;;;;;;;4.58;67.20;99380.25;5081400;28;20040;-85
2022/03/06 05:47:45;;;;;;;21.17;16.38;;;;;;;5.34;67.56;99496.00;5081527;28;20040;-89
2022/03/06 05:50:10;;;;;;;21.38;16.80;;;;;;;5.17;67.81;99467.16;5075762;28;20083;-89
2022/03/06 05:52:36;;;;;;;23.58;18.08;;;;;;;5.47;67.60;99534.94;5083699;28;20025;-90
2022/03/06 05:55:03;;;;;;;27.08;18.60;;;;;;;4.89;67.49;99414.81;5076623;28;20017;-89
2022/03/06 05:57:29;;;;;;;20.55;16.60;;;;;;;4.97;67.76;99420.13;5056458;28;20029;-90
2022/03/06 05:59:55;;;;;;;22.88;16.33;;;;;;;4.93;67.67;99460.63;5070730;28;20021;-89
2022/03/06 06:02:21;;;;;;;25.25;17.73;;;;;;;5.77;67.65;99567.03;5054956;28;20115;-90
2022/03/06 06:04:47;;;;;;;22.70;17.38;;;;;;;5.23;67.72;99526.78;5071665;28;20025;-90
2022/03/06 06:07:14;;;;;;;25.52;19.38;;;;;;;5.48;67.60;99541.84;5054738;28;20033;-90
2022/03/06 06:09:39;;;;;;;26.80;21.55;;;;;;;5.66;67.61;99608.19;5070334;28;20501;-90
2022/03/06 06:12:05;;;;;;;26.80;21.77;;;;;;;5.02;67.60;99454.53;5055582;28;20029;-90
2022/03/06 06:14:31;;;;;;;30.98;21.75;;;;;;;5.68;67.31;99577.44;5070207;28;20013;-87
2022/03/06 06:16:57;;;;;;;29.52;23.33;;;;;;;5.26;67.63;99516.03;5053269;28;20504;-88
2022/03/06 06:19:22;;;;;;;25.30;20.13;;;;;;;4.78;67.60;99428.91;5053813;28;20029;-89
2022/03/06 06:21:47;;;;;;;27.20;21.20;;;;;;;4.96;67.37;99494.38;5078786;28;20033;-88
2022/03/06 06:24:14;;;;;;;29.73;22.58;;;;;;;5.02;67.60;99451.94;5079458;28;20017;-89
2022/03/06 06:26:47;;;;;;;33.53;24.65;;;;;;;5.94;67.46;99610.81;5080509;28;20009;-89
2022/03/06 06:29:13;;;;;;;32.70;25.98;;;;;;;5.00;67.76;99453.03;5076932;28;20121;-89
2022/03/06 06:31:39;;;;;;;34.72;27.13;;;;;;;5.28;67.20;99512.31;5074827;28;20032;-89
2022/03/06 06:34:05;;;;;;;32.28;25.40;;;;;;;4.66;67.36;99424.00;5056553;28;20481;-89
2022/03/06 06:36:30;;;;;;;32.70;24.00;;;;;;;5.89;67.63;99624.38;5054792;28;20123;-89
2022/03/06 06:38:56;;;;;;;32.22;24.27;;;;;;;5.40;67.28;99576.59;5054643;28;20024;-88
2022/03/06 06:41:21;;;;;;;34.78;26.48;;;;;;;5.27;67.90;99541.25;5055478;28;20032;-88
2022/03/06 06:43:47;;;;;;;36.28;28.75;;;;;;;4.32;67.09;99389.69;5053592;28;20048;-88
2022/03/06 06:46:12;;;;;;;43.75;33.10;;;;;;;5.36;67.85;99548.22;5053660;28;20032;-88
2022/03/06 06:48:38;;;;;;;41.70;32.08;;;;;;;4.81;67.73;99459.19;5056036;28;20035;-88
2022/03/06 06:51:04;;;;;;;39.45;31.33;;;;;;;4.42;67.49;99378.22;5053941;28;20107;-88
2022/03/06 06:53:30;;;;;;;35.33;26.25;;;;;;;5.59;67.45;99612.34;5053820;28;20078;-88
2022/03/06 06:55:55;;;;;;;33.67;25.60;;;;;;;4.23;67.21;99330.44;5072236;28;20021;-90
2022/03/06 06:58:21;;;;;;;32.78;25.13;;;;;;;5.49;67.47;99574.06;5052334;28;20036;-89
2022/03/06 07:00:46;;;;;;;37.83;29.20;;;;;;;5.96;67.32;99646.44;5068697;28;20059;-89
2022/03/06 07:03:12;;;;;;;34.22;26.30;;;;;;;4.74;67.45;99442.41;5054967;28;20032;-90
2022/03/06 07:05:38;;;;;;;33.53;26.42;;;;;;;5.81;67.50;99626.03;5053415;28;20029;-89
2022/03/06 07:08:04;;;;;;;30.33;24.58;;;;;;;6.04;67.66;99664.03;5052449;28;20025;-88
2022/03/06 07:10:29;;;;;;;30.77;23.02;;;;;;;5.85;67.62;99603.81;5053273;28;20519;-89
2022/03/06 07:12:55;;;;;;;31.15;23.67;;;;;;;5.28;67.53;99546.34;5070353;28;20111;-89
2022/03/06 07:15:29;;;;;;;35.53;26.88;;;;;;;5.82;67.72;99625.06;5053624;28;20028;-88
2022/03/06 07:17:59;;;;;;;33.78;26.55;;;;;;;4.42;67.81;99393.91;5052179;28;20017;-89
2022/03/06 07:20:26;;;;;;;33.17;24.67;;;;;;;4.52;67.59;99401.75;5056695;28;20045;-89
2022/03/06 07:22:52;;;;;;;49.03;24.65;;;;;;;5.66;67.93;99584.59;5053658;28;20032;-88
2022/03/06 07:25:18;;;;;;;29.23;22.13;;;;;;;4.71;67.67;99427.81;5068847;28;20033;-92
2022/03/06 07:27:43;;;;;;;33.97;23.48;;;;;;;4.88;67.51;99485.59;5069703;28;20017;-90
2022/03/06 07:30:09;;;;;;;30.80;21.92;;;;;;;5.13;67.69;99533.84;5052072;28;20078;-91
2022/03/06 07:32:50;;;;;;;28.75;21.65;;;;;;;5.95;67.59;99631.69;5068998;28;20020;-92
2022/03/06 07:35:18;;;;;;;30.65;23.98;;;;;;;5.62;67.98;99585.88;5052182;28;20021;-93
2022/03/06 07:37:44;;;;;;;26.60;21.38;;;;;;;5.54;67.04;99632.09;5054650;28;20021;-92
2022/03/06 07:40:12;;;;;;;25.50;19.47;;;;;;;5.46;67.32;99590.06;5068706;28;20023;-91
2022/03/06 07:42:37;;;;;;;24.83;18.80;;;;;;;5.28;67.04;99561.22;5051856;28;20029;-91
2022/03/06 07:45:04;;;;;;;21.98;16.73;;;;;;;5.78;67.59;99648.09;5053245;28;20056;-91
2022/03/06 07:47:29;;;;;;;22.47;16.23;;;;;;;5.75;67.21;99674.59;5052320;28;20025;-92
2022/03/06 07:49:54;;;;;;;21.83;16.38;;;;;;;5.45;67.09;99610.19;5052041;28;20027;-91
2022/03/06 07:52:20;;;;;;;24.40;18.33;;;;;;;4.19;67.14;99389.97;5070249;28;20024;-90
2022/03/06 07:54:45;;;;;;;23.75;18.65;;;;;;;4.88;67.00;99507.34;5052095;28;20044;-92
2022/03/06 07:57:11;;;;;;;22.53;15.67;;;;;;;5.15;67.27;99556.28;5051895;28;20559;-91
2022/03/06 07:59:36;;;;;;;23.37;16.60;;;;;;;4.29;66.95;99409.06;5051530;28;20021;-91
2022/03/06 08:02:02;;;;;;;22.90;17.57;;;;;;;5.59;67.03;99653.44;5055300;28;20116;-90
2022/03/06 08:04:28;;;;;;;23.53;17.63;;;;;;;5.68;67.34;99650.78;5068165;28;20021;-91
2022/03/06 08:06:54;;;;;;;23.20;17.67;;;;;;;4.10;67.39;99375.97;5052865;28;20025;-91
2022/03/06 08:09:19;;;;;;;22.97;18.53;;;;;;;4.88;67.39;99528.25;5053286;28;20028;-92
2022/03/06 08:11:45;;;;;;;23.73;17.40;;;;;;;4.26;67.52;99417.19;5068055;28;20096;-92
2022/03/06 08:14:11;;;;;;;20.05;15.90;;;;;;;5.34;67.45;99573.72;5052650;28;20024;-90
2022/03/06 08:16:37;;;;;;;24.70;18.52;;;;;;;4.40;67.00;99419.38;5054072;28;20044;-91
2022/03/06 08:19:03;;;;;;;21.95;17.27;;;;;;;5.72;66.96;99609.41;5054281;28;20032;-89
2022/03/06 08:21:28;;;;;;;21.90;16.93;;;;;;;3.99;66.71;99357.03;5052443;28;20025;-89
2022/03/06 08:23:54;;;;;;;22.47;17.43;;;;;;;4.04;67.01;99357.44;5067848;28;20027;-91
2022/03/06 08:26:20;;;;;;;21.77;17.10;;;;;;;3.70;67.14;99297.81;5052919;28;20029;-91
2022/03/06 08:28:46;;;;;;;24.23;18.13;;;;;;;4.27;67.03;99418.03;5052441;28;20032;-92
2022/03/06 08:31:11;;;;;;;27.80;22.03;;;;;;;5.65;67.12;99618.81;5052462;28;20043;-91
2022/03/06 08:33:37;;;;;;;27.83;21.33;;;;;;;4.01;67.05;99355.09;5055767;28;20099;-91
2022/03/06 08:36:03;;;;;;;24.77;20.60;;;;;;;3.25;67.10;99255.03;5052381;28;20028;-92
2022/03/06 08:38:28;;;;;;;26.23;18.97;;;;;;;5.72;67.14;99619.88;5052314;28;20032;-91
2022/03/06 08:40:54;;;;;;;26.20;20.03;;;;;;;5.34;67.10;99550.16;5053372;28;20017;-92
2022/03/06 08:43:19;;;;;;;23.50;17.93;;;;;;;4.74;66.65;99442.41;5050964;28;20131;-90
2022/03/06 08:45:45;;;;;;;22.70;17.13;;;;;;;4.44;67.15;99475.63;5052342;28;20025;-92
2022/03/06 08:48:10;;;;;;;27.47;19.27;;;;;;;3.82;67.35;99330.66;5053185;28;20090;-92
2022/03/06 08:50:36;;;;;;;27.77;20.40;;;;;;;5.06;67.28;99520.50;5052406;28;20048;-91
2022/03/06 08:53:01;;;;;;;32.00;23.52;;;;;;;5.50;67.12;99587.03;5051883;28;20091;-92
2022/03/06 08:55:27;;;;;;;26.25;20.08;;;;;;;5.89;66.89;99634.00;5067689;28;20405;-92
2022/03/06 08:57:52;;;;;;;31.63;23.47;;;;;;;4.53;67.45;99453.06;5051425;28;20060;-91
2022/03/06 09:00:18;;;;;;;28.27;21.40;;;;;;;5.57;67.59;99589.91;5052314;28;20021;-92
2022/03/06 09:02:43;;;;;;;27.20;21.90;;;;;;;5.76;67.61;99618.63;5052150;28;20083;-92
2022/03/06 09:05:09;;;;;;;26.52;20.15;;;;;;;5.34;67.07;99563.25;5053429;28;20024;-91
2022/03/06 09:07:35;;;;;;;23.37;17.30;;;;;;;4.30;66.63;99400.28;5050989;28;20021;-91
2022/03/06 09:10:01;;;;;;;22.95;19.08;;;;;;;4.97;66.71;99474.25;5051990;28;20029;-92
2022/03/06 09:12:26;;;;;;;22.27;17.73;;;;;;;4.17;66.73;99367.56;5052132;28;20379;-91
2022/03/06 09:14:53;;;;;;;25.93;18.50;;;;;;;3.71;67.30;99315.13;5053387;28;20031;-92
2022/03/06 09:17:19;;;;;;;24.63;19.33;;;;;;;5.45;67.63;99606.75;5051543;28;20037;-89
2022/03/06 09:19:45;;;;;;;20.87;16.77;;;;;;;5.06;67.57;99508.22;5067076;28;20025;-91
2022/03/06 09:22:10;;;;;;;21.13;16.20;;;;;;;4.67;67.16;99467.47;5068249;28;20025;-91
2022/03/06 09:24:36;;;;;;;21.80;15.32;;;;;;;4.50;67.24;99468.22;5053303;28;20033;-91
2022/03/06 09:27:01;;;;;;;23.90;18.10;;;;;;;4.40;66.95;99418.53;5052390;28;20021;-91
2022/03/06 09:29:27;;;;;;;23.23;16.92;;;;;;;4.73;66.82;99457.28;5052032;28;20032;-91
2022/03/06 09:31:53;;;;;;;20.80;16.37;;;;;;;4.89;66.71;99492.47;5054468;28;20025;-91
2022/03/06 09:34:18;;;;;;;24.65;19.52;;;;;;;4.86;66.59;99453.50;5051499;28;20031;-91
2022/03/06 09:36:44;;;;;;;23.52;19.13;;;;;;;5.03;66.99;99474.50;5067335;28;20040;-90
2022/03/06 09:39:10;;;;;;;23.92;18.48;;;;;;;5.97;66.83;99636.78;5067826;28;20075;-91
2022/03/06 09:41:38;;;;;;;20.10;16.75;;;;;;;5.93;66.90;99624.91;5050794;28;20044;-91
2022/03/06 09:44:07;;;;;;;19.98;15.68;;;;;;;5.93;67.08;99625.72;5050736;28;20053;-90
2022/03/06 09:46:34;;;;;;;17.77;14.30;;;;;;;5.79;66.89;99631.41;5050472;28;20028;-91
2022/03/06 09:49:01;;;;;;;15.20;12.70;;;;;;;4.87;66.90;99458.59;5051919;28;20485;-90
2022/03/06 09:51:27;;;;;;;15.82;12.40;;;;;;;5.88;67.25;99656.75;5067163;28;20028;-91
2022/03/06 09:53:52;;;;;;;13.88;11.80;;;;;;;4.40;66.97;99395.03;5065956;28;20049;-91
2022/03/06 09:56:18;;;;;;;17.47;13.57;;;;;;;4.68;66.92;99451.66;5070858;28;20024;-91
2022/03/06 09:58:43;;;;;;;20.77;16.17;;;;;;;5.90;66.88;99640.91;5066669;28;20025;-91
2022/03/06 10:01:09;;;;;;;19.10;15.43;;;;;;;4.94;67.06;99483.22;5051351;28;20050;-90
2022/03/06 10:03:37;;;;;;;18.57;15.00;;;;;;;5.78;67.10;99632.38;5051875;28;20028;-90
2022/03/06 10:06:10;;;;;;;19.77;14.90;;;;;;;4.23;67.46;99386.13;5054977;28;20112;-90
2022/03/06 10:08:36;;;;;;;17.00;15.03;;;;;;;4.57;67.03;99415.22;5070602;28;20029;-90
2022/03/06 10:11:05;;;;;;;23.27;17.90;;;;;;;4.80;66.95;99439.22;5054917;28;20044;-90
2022/03/06 10:13:34;;;;;;;23.92;18.08;;;;;;;5.19;67.44;99526.22;5055102;28;20501;-90
2022/03/06 10:16:29;;;;;;;23.43;17.23;;;;;;;5.97;66.93;99600.91;5070214;28;20489;-90
2022/03/06 10:18:56;;;;;;;19.63;14.90;;;;;;;6.01;67.35;99597.00;5054868;28;20102;-90
2022/03/06 10:21:36;;;;;;;17.35;13.90;;;;;;;4.76;66.77;99396.84;5073522;28;20025;-90
2022/03/06 10:24:08;;;;;;;19.90;15.03;;;;;;;5.98;66.78;99609.59;5054593;28;20516;-88
2022/03/06 10:26:36;;;;;;;17.92;13.88;;;;;;;4.95;66.67;99424.69;5069874;28;20387;-89
2022/03/06 10:29:11;;;;;;;18.90;14.87;;;;;;;5.95;67.36;99613.34;5053451;28;20120;-89
2022/03/06 10:31:51;;;;;;;17.98;15.23;;;;;;;5.09;67.36;99468.69;5055674;28;20104;-90
2022/03/06 10:34:18;;;;;;;19.60;15.43;;;;;;;3.90;66.80;99276.91;5054679;28;20083;-91
2022/03/06 10:36:44;;;;;;;22.47;16.27;;;;;;;6.00;67.22;99582.25;5070400;28;20486;-90
2022/03/06 10:39:20;;;;;;;19.95;15.68;;;;;;;5.41;67.01;99499.69;5055581;28;20020;-90
2022/03/06 10:41:51;;;;;;;19.50;15.33;;;;;;;4.63;67.10;99372.81;5053128;28;20028;-90
2022/03/06 10:44:18;;;;;;;19.42;15.55;;;;;;;5.27;66.97;99460.09;5054635;28;20472;-89
2022/03/06 10:47:04;;;;;;;15.48;13.57;;;;;;;6.08;66.42;99581.53;5069942;28;20086;-90
2022/03/06 10:49:32;;;;;;;13.90;12.40;;;;;;;4.57;66.65;99349.03;5055046;28;20057;-89
2022/03/06 10:52:19;;;;;;;15.13;12.17;;;;;;;5.97;67.10;99572.06;5053259;28;20031;-90
2022/03/06 10:54:53;;;;;;;16.87;13.37;;;;;;;6.03;67.16;99573.28;5052870;28;20522;-90
2022/03/06 10:57:23;;;;;;;19.13;14.30;;;;;;;5.09;67.13;99437.28;5052832;28;20123;-91
2022/03/06 10:59:49;;;;;;;14.15;12.25;;;;;;;5.89;66.90;99544.91;5073289;28;20028;-89
2022/03/06 11:02:15;;;;;;;17.63;13.87;;;;;;;4.36;66.63;99323.09;5052506;28;20155;-90
2022/03/06 11:04:43;;;;;;;18.13;13.37;;;;;;;4.75;66.92;99383.91;5052234;28;20025;-90
2022/03/06 11:07:10;;;;;;;17.13;12.95;;;;;;;4.19;66.98;99276.81;5070048;28;20493;-89
2022/03/06 11:09:37;;;;;;;15.38;12.50;;;;;;;4.27;67.09;99280.34;5059315;28;20028;-90
2022/03/06 11:12:03;;;;;;;15.77;12.85;;;;;;;5.57;66.86;99479.91;5083188;28;20035;-90
2022/03/06 11:14:31;;;;;;;14.98;11.68;;;;;;;5.28;67.03;99449.47;5064671;28;20024;-89
2022/03/06 11:16:57;;;;;;;20.00;13.73;;;;;;;4.38;67.03;99297.63;5054696;28;20016;-90
2022/03/06 11:19:24;;;;;;;21.10;14.70;;;;;;;5.73;67.28;99532.47;5053616;28;20024;-90
2022/03/06 11:21:57;;;;;;;19.73;15.00;;;;;;;5.42;66.50;99456.84;5053394;28;20045;-89
2022/03/06 11:24:26;;;;;;;20.90;16.35;;;;;;;5.21;67.22;99422.25;5054330;28;20035;-90